createdAt,value
2018-04-17T00:00:13.949Z,1017.49
2018-04-17T00:01:13.979Z,1017.51
2018-04-17T00:02:14.023Z,1017.53
2018-04-17T00:03:14.048Z,1017.53
2018-04-17T00:04:14.076Z,1017.55
2018-04-17T00:05:14.400Z,1017.52
2018-04-17T00:06:14.143Z,1017.52
2018-04-17T00:07:14.156Z,1017.54
2018-04-17T00:08:14.203Z,1017.59
2018-04-17T00:09:14.214Z,1017.61
2018-04-17T00:10:14.254Z,1017.61
2018-04-17T00:11:14.540Z,1017.61
2018-04-17T00:12:14.316Z,1017.60
2018-04-17T00:13:14.362Z,1017.58
2018-04-17T00:14:14.374Z,1017.60
2018-04-17T00:15:14.412Z,1017.60
2018-04-17T00:16:14.430Z,1017.62
2018-04-17T00:17:14.767Z,1017.61
2018-04-17T00:18:14.487Z,1017.60
2018-04-17T00:19:14.517Z,1017.61
2018-04-17T00:20:14.607Z,1017.58
2018-04-17T00:21:14.590Z,1017.59
2018-04-17T00:22:14.701Z,1017.58
2018-04-17T00:23:14.940Z,1017.57
2018-04-17T00:24:14.668Z,1017.57
2018-04-17T00:25:14.705Z,1017.54
2018-04-17T00:26:14.761Z,1017.55
2018-04-17T00:27:14.788Z,1017.55
2018-04-17T00:28:14.893Z,1017.58
2018-04-17T00:29:15.153Z,1017.58
2018-04-17T00:30:14.847Z,1017.60
2018-04-17T00:31:14.880Z,1017.60
2018-04-17T00:32:14.909Z,1017.61
2018-04-17T00:33:14.972Z,1017.63
2018-04-17T00:34:14.969Z,1017.63
2018-04-17T00:35:15.249Z,1017.70
2018-04-17T00:36:15.020Z,1017.68
2018-04-17T00:37:15.056Z,1017.69
2018-04-17T00:38:15.083Z,1017.71
2018-04-17T00:39:15.119Z,1017.72
2018-04-17T00:40:15.142Z,1017.71
2018-04-17T00:41:15.535Z,1017.74
2018-04-17T00:42:15.200Z,1017.76
2018-04-17T00:43:15.236Z,1017.75
2018-04-17T00:44:15.269Z,1017.77
2018-04-17T00:45:15.344Z,1017.76
2018-04-17T00:46:15.329Z,1017.74
2018-04-17T00:47:15.605Z,1017.76
2018-04-17T00:48:15.405Z,1017.77
2018-04-17T00:49:15.414Z,1017.74
2018-04-17T00:50:15.450Z,1017.76
2018-04-17T00:51:15.484Z,1017.75
2018-04-17T00:52:15.507Z,1017.76
2018-04-17T00:53:15.781Z,1017.76
2018-04-17T00:54:15.564Z,1017.78
2018-04-17T00:55:15.595Z,1017.76
2018-04-17T00:56:15.629Z,1017.76
2018-04-17T00:57:15.668Z,1017.76
2018-04-17T00:58:15.684Z,1017.76
2018-04-17T00:59:15.982Z,1017.77
2018-04-17T01:00:15.754Z,1017.73
2018-04-17T01:01:15.790Z,1017.76
2018-04-17T01:02:15.814Z,1017.79
2018-04-17T01:03:49.063Z,1017.77
2018-04-17T01:04:15.902Z,1017.79
2018-04-17T01:05:15.921Z,1017.80
2018-04-17T01:06:16.187Z,1017.80
2018-04-17T01:07:15.976Z,1017.80
2018-04-17T01:08:15.994Z,1017.85
2018-04-17T01:09:16.021Z,1017.84
2018-04-17T01:10:16.060Z,1017.81
2018-04-17T01:11:16.080Z,1017.84
2018-04-17T01:12:16.111Z,1017.90
2018-04-17T01:13:16.468Z,1017.87
2018-04-17T01:14:16.187Z,1017.90
2018-04-17T01:15:16.200Z,1017.94
2018-04-17T01:16:16.233Z,1017.93
2018-04-17T01:17:16.258Z,1017.94
2018-04-17T01:18:16.293Z,1017.96
2018-04-17T01:19:16.318Z,1017.92
2018-04-17T01:20:16.600Z,1017.96
2018-04-17T01:21:16.382Z,1017.93
2018-04-17T01:22:16.412Z,1017.94
2018-04-17T01:23:16.447Z,1017.95
2018-04-17T01:24:16.486Z,1017.96
2018-04-17T01:25:16.496Z,1017.95
2018-04-17T01:26:16.526Z,1018.02
2018-04-17T01:27:16.816Z,1018.00
2018-04-17T01:28:16.588Z,1018.00
2018-04-17T01:29:16.618Z,1018.01
2018-04-17T01:30:16.649Z,1018.02
2018-04-17T01:31:16.678Z,1018.01
2018-04-17T01:32:16.722Z,1018.05
2018-04-17T01:33:16.736Z,1018.00
2018-04-17T01:34:17.031Z,1018.06
2018-04-17T01:35:16.803Z,1018.09
2018-04-17T01:36:16.833Z,1018.12
2018-04-17T01:37:16.855Z,1018.13
2018-04-17T01:38:16.885Z,1018.10
2018-04-17T01:39:16.915Z,1018.10
2018-04-17T01:40:16.945Z,1018.11
2018-04-17T01:41:17.270Z,1018.13
2018-04-17T01:42:16.999Z,1018.12
2018-04-17T01:43:17.048Z,1018.10
2018-04-17T01:44:17.058Z,1018.12
2018-04-17T01:45:17.138Z,1018.13
2018-04-17T01:46:17.120Z,1018.11
2018-04-17T01:47:17.148Z,1018.14
2018-04-17T01:48:17.426Z,1018.17
2018-04-17T01:49:17.209Z,1018.17
2018-04-17T01:50:17.237Z,1018.17
2018-04-17T01:51:17.269Z,1018.18
2018-04-17T01:52:17.295Z,1018.24
2018-04-17T01:53:17.326Z,1018.25
2018-04-17T01:54:17.364Z,1018.25
2018-04-17T01:55:17.672Z,1018.26
2018-04-17T01:56:17.447Z,1018.27
2018-04-17T01:57:17.456Z,1018.28
2018-04-17T01:58:17.483Z,1018.30
2018-04-17T01:59:17.523Z,1018.32
2018-04-17T02:00:17.542Z,1018.33
2018-04-17T02:01:17.563Z,1018.32
2018-04-17T02:02:17.845Z,1018.33
2018-04-17T02:03:17.633Z,1018.33
2018-04-17T02:04:17.841Z,1018.31
2018-04-17T02:05:17.691Z,1018.33
2018-04-17T02:06:17.744Z,1018.31
2018-04-17T02:07:17.751Z,1018.32
2018-04-17T02:08:17.792Z,1018.32
2018-04-17T02:09:18.112Z,1018.30
2018-04-17T02:10:17.841Z,1018.30
2018-04-17T02:11:17.919Z,1018.32
2018-04-17T02:12:17.891Z,1018.35
2018-04-17T02:13:17.927Z,1018.36
2018-04-17T02:14:17.971Z,1018.35
2018-04-17T02:15:18.032Z,1018.36
2018-04-17T02:16:18.267Z,1018.36
2018-04-17T02:17:18.049Z,1018.39
2018-04-17T02:18:18.100Z,1018.40
2018-04-17T02:19:18.103Z,1018.41
2018-04-17T02:20:18.142Z,1018.38
2018-04-17T02:21:18.160Z,1018.43
2018-04-17T02:22:18.438Z,1018.40
2018-04-17T02:23:18.214Z,1018.41
2018-04-17T02:24:18.262Z,1018.46
2018-04-17T02:25:18.275Z,1018.42
2018-04-17T02:26:18.306Z,1018.44
2018-04-17T02:27:18.333Z,1018.47
2018-04-17T02:28:18.615Z,1018.45
2018-04-17T02:29:18.398Z,1018.48
2018-04-17T02:30:18.449Z,1018.49
2018-04-17T02:31:18.501Z,1018.46
2018-04-17T02:32:18.506Z,1018.48
2018-04-17T02:33:18.528Z,1018.50
2018-04-17T02:34:18.881Z,1018.51
2018-04-17T02:35:18.577Z,1018.54
2018-04-17T02:36:18.604Z,1018.55
2018-04-17T02:37:18.628Z,1018.60
2018-04-17T02:38:18.664Z,1018.56
2018-04-17T02:39:18.690Z,1018.55
2018-04-17T02:40:19.045Z,1018.52
2018-04-17T02:41:18.796Z,1018.53
2018-04-17T02:42:18.777Z,1018.55
2018-04-17T02:43:18.806Z,1018.56
2018-04-17T02:44:18.844Z,1018.58
2018-04-17T02:45:18.866Z,1018.58
2018-04-17T02:46:19.147Z,1018.60
2018-04-17T02:47:18.924Z,1018.60
2018-04-17T02:48:18.967Z,1018.60
2018-04-17T02:49:18.982Z,1018.60
2018-04-17T02:50:19.010Z,1018.60
2018-04-17T02:51:19.045Z,1018.61
2018-04-17T02:52:19.318Z,1018.65
2018-04-17T02:53:19.111Z,1018.62
2018-04-17T02:54:19.130Z,1018.58
2018-04-17T02:55:19.163Z,1018.62
2018-04-17T02:56:19.289Z,1018.64
2018-04-17T02:57:19.220Z,1018.67
2018-04-17T02:58:19.558Z,1018.69
2018-04-17T02:59:19.280Z,1018.66
2018-04-17T03:00:19.318Z,1018.64
2018-04-17T03:01:19.347Z,1018.63
2018-04-17T03:02:19.375Z,1018.66
2018-04-17T03:03:19.411Z,1018.62
2018-04-17T03:04:19.673Z,1018.67
2018-04-17T03:05:19.450Z,1018.64
2018-04-17T03:06:19.483Z,1018.69
2018-04-17T03:07:19.512Z,1018.67
2018-04-17T03:08:19.570Z,1018.65
2018-04-17T03:09:19.577Z,1018.64
2018-04-17T03:10:19.911Z,1018.64
2018-04-17T03:11:19.633Z,1018.63
2018-04-17T03:12:19.657Z,1018.62
2018-04-17T03:13:19.686Z,1018.66
2018-04-17T03:14:19.720Z,1018.63
2018-04-17T03:15:19.746Z,1018.64
2018-04-17T03:16:20.235Z,1018.63
2018-04-17T03:17:19.806Z,1018.65
2018-04-17T03:18:19.840Z,1018.67
2018-04-17T03:19:19.877Z,1018.66
2018-04-17T03:20:19.900Z,1018.64
2018-04-17T03:21:19.925Z,1018.63
2018-04-17T03:22:20.262Z,1018.66
2018-04-17T03:23:20.083Z,1018.67
2018-04-17T03:24:20.010Z,1018.65
2018-04-17T03:25:20.046Z,1018.64
2018-04-17T03:26:20.095Z,1018.67
2018-04-17T03:27:20.101Z,1018.66
2018-04-17T03:28:20.379Z,1018.68
2018-04-17T03:29:20.157Z,1018.68
2018-04-17T03:30:20.186Z,1018.68
2018-04-17T03:31:20.220Z,1018.65
2018-04-17T03:32:20.242Z,1018.67
2018-04-17T03:33:20.283Z,1018.67
2018-04-17T03:34:20.356Z,1018.67
2018-04-17T03:35:20.642Z,1018.68
2018-04-17T03:36:20.364Z,1018.63
2018-04-17T03:37:20.394Z,1018.63
2018-04-17T03:38:20.430Z,1018.61
2018-04-17T03:39:20.450Z,1018.64
2018-04-17T03:40:20.485Z,1018.63
2018-04-17T03:41:20.510Z,1018.64
2018-04-17T03:42:20.850Z,1018.59
2018-04-17T03:43:20.579Z,1018.61
2018-04-17T03:44:20.603Z,1018.61
2018-04-17T03:45:20.624Z,1018.65
2018-04-17T03:46:20.650Z,1018.65
2018-04-17T03:47:20.694Z,1018.65
2018-04-17T03:48:20.709Z,1018.67
2018-04-17T03:49:21.003Z,1018.62
2018-04-17T03:50:20.770Z,1018.66
2018-04-17T03:51:20.796Z,1018.64
2018-04-17T03:52:20.875Z,1018.65
2018-04-17T03:53:20.853Z,1018.62
2018-04-17T03:54:20.883Z,1018.64
2018-04-17T03:55:20.963Z,1018.62
2018-04-17T03:56:21.244Z,1018.62
2018-04-17T03:57:21.017Z,1018.65
2018-04-17T03:58:21.128Z,1018.62
2018-04-17T03:59:21.036Z,1018.59
2018-04-17T04:00:21.083Z,1018.60
2018-04-17T04:01:21.093Z,1018.61
2018-04-17T04:02:21.118Z,1018.65
2018-04-17T04:03:21.409Z,1018.67
2018-04-17T04:04:21.175Z,1018.62
2018-04-17T04:05:21.222Z,1018.71
2018-04-17T04:06:21.236Z,1018.69
2018-04-17T04:07:21.263Z,1018.69
2018-04-17T04:08:21.343Z,1018.68
2018-04-17T04:09:21.318Z,1018.65
2018-04-17T04:10:21.650Z,1018.70
2018-04-17T04:11:21.382Z,1018.66
2018-04-17T04:12:21.424Z,1018.69
2018-04-17T04:13:21.440Z,1018.69
2018-04-17T04:14:21.477Z,1018.72
2018-04-17T04:15:21.506Z,1018.70
2018-04-17T04:16:21.529Z,1018.74
2018-04-17T04:17:21.813Z,1018.72
2018-04-17T04:18:21.578Z,1018.77
2018-04-17T04:19:21.613Z,1018.75
2018-04-17T04:20:21.641Z,1018.72
2018-04-17T04:21:21.674Z,1018.75
2018-04-17T04:22:21.696Z,1018.80
2018-04-17T04:23:21.736Z,1018.80
2018-04-17T04:24:22.211Z,1018.82
2018-04-17T04:25:21.797Z,1018.79
2018-04-17T04:26:21.820Z,1018.84
2018-04-17T04:27:21.846Z,1018.85
2018-04-17T04:28:21.871Z,1018.86
2018-04-17T04:29:21.900Z,1018.83
2018-04-17T04:30:21.926Z,1018.85
2018-04-17T04:31:22.210Z,1018.84
2018-04-17T04:32:22.001Z,1018.85
2018-04-17T04:33:22.027Z,1018.89
2018-04-17T04:34:22.049Z,1018.87
2018-04-17T04:35:22.079Z,1018.87
2018-04-17T04:36:22.209Z,1018.88
2018-04-17T04:37:22.228Z,1018.89
2018-04-17T04:38:22.479Z,1018.92
2018-04-17T04:39:22.191Z,1018.92
2018-04-17T04:40:22.272Z,1018.98
2018-04-17T04:41:22.252Z,1018.97
2018-04-17T04:42:22.284Z,1018.99
2018-04-17T04:43:22.310Z,1018.98
2018-04-17T04:44:22.341Z,1018.99
2018-04-17T04:45:22.614Z,1019.08
2018-04-17T04:46:22.396Z,1019.03
2018-04-17T04:47:22.447Z,1019.01
2018-04-17T04:48:22.457Z,1019.02
2018-04-17T04:49:22.547Z,1019.09
2018-04-17T04:50:22.508Z,1019.11
2018-04-17T04:51:22.806Z,1019.09
2018-04-17T04:52:22.569Z,1019.14
2018-04-17T04:53:22.609Z,1019.17
2018-04-17T04:54:22.624Z,1019.18
2018-04-17T04:55:22.654Z,1019.19
2018-04-17T04:56:22.686Z,1019.17
2018-04-17T04:57:22.961Z,1019.18
2018-04-17T04:58:22.759Z,1019.20
2018-04-17T04:59:22.769Z,1019.18
2018-04-17T05:00:22.824Z,1019.19
2018-04-17T05:01:22.828Z,1019.20
2018-04-17T05:02:22.867Z,1019.26
2018-04-17T05:03:23.090Z,1019.24
2018-04-17T05:04:22.962Z,1019.29
2018-04-17T05:05:22.950Z,1019.29
2018-04-17T05:06:22.973Z,1019.24
2018-04-17T05:07:23.101Z,1019.31
2018-04-17T05:08:23.031Z,1019.33
2018-04-17T05:09:23.371Z,1019.33
2018-04-17T05:10:23.124Z,1019.36
2018-04-17T05:11:23.171Z,1019.34
2018-04-17T05:12:23.152Z,1019.34
2018-04-17T05:13:23.179Z,1019.36
2018-04-17T05:14:23.209Z,1019.38
2018-04-17T05:15:23.491Z,1019.43
2018-04-17T05:16:23.269Z,1019.47
2018-04-17T05:17:23.298Z,1019.49
2018-04-17T05:18:23.334Z,1019.50
2018-04-17T05:19:23.368Z,1019.53
2018-04-17T05:20:23.392Z,1019.54
2018-04-17T05:21:23.666Z,1019.59
2018-04-17T05:22:23.444Z,1019.59
2018-04-17T05:23:23.584Z,1019.59
2018-04-17T05:24:23.515Z,1019.60
2018-04-17T05:25:23.547Z,1019.63
2018-04-17T05:26:23.578Z,1019.67
2018-04-17T05:27:23.862Z,1019.66
2018-04-17T05:28:23.628Z,1019.69
2018-04-17T05:29:23.660Z,1019.68
2018-04-17T05:30:23.690Z,1019.67
2018-04-17T05:31:23.719Z,1019.71
2018-04-17T05:32:23.772Z,1019.73
2018-04-17T05:33:24.047Z,1019.78
2018-04-17T05:34:23.810Z,1019.77
2018-04-17T05:35:23.844Z,1019.81
2018-04-17T05:36:23.893Z,1019.81
2018-04-17T05:37:23.914Z,1019.89
2018-04-17T05:38:23.957Z,1019.87
2018-04-17T05:39:24.224Z,1019.90
2018-04-17T05:40:23.989Z,1019.97
2018-04-17T05:41:24.024Z,1020.01
2018-04-17T05:42:24.060Z,1020.07
2018-04-17T05:43:24.082Z,1020.07
2018-04-17T05:44:24.131Z,1020.07
2018-04-17T05:45:24.448Z,1020.12
2018-04-17T05:46:24.177Z,1020.16
2018-04-17T05:47:24.205Z,1020.13
2018-04-17T05:48:24.239Z,1020.23
2018-04-17T05:49:24.286Z,1020.23
2018-04-17T05:50:24.298Z,1020.25
2018-04-17T05:51:24.355Z,1020.28
2018-04-17T05:52:24.413Z,1020.29
2018-04-17T05:53:24.403Z,1020.31
2018-04-17T05:54:24.423Z,1020.35
2018-04-17T05:55:24.464Z,1020.33
2018-04-17T05:56:24.532Z,1020.33
2018-04-17T05:57:24.804Z,1020.39
2018-04-17T05:58:24.541Z,1020.34
2018-04-17T05:59:24.585Z,1020.39
2018-04-17T06:00:24.664Z,1020.39
2018-04-17T06:01:24.708Z,1020.46
2018-04-17T06:02:24.663Z,1020.44
2018-04-17T06:03:24.699Z,1020.39
2018-04-17T06:04:24.728Z,1020.43
2018-04-17T06:05:24.751Z,1020.47
2018-04-17T06:06:24.790Z,1020.44
2018-04-17T06:07:24.815Z,1020.45
2018-04-17T06:08:24.850Z,1020.45
2018-04-17T06:09:24.884Z,1020.48
2018-04-17T06:10:25.209Z,1020.48
2018-04-17T06:11:24.938Z,1020.55
2018-04-17T06:12:25.001Z,1020.53
2018-04-17T06:13:25.001Z,1020.58
2018-04-17T06:14:25.032Z,1020.53
2018-04-17T06:15:25.063Z,1020.56
2018-04-17T06:16:25.112Z,1020.58
2018-04-17T06:17:25.372Z,1020.56
2018-04-17T06:18:25.188Z,1020.56
2018-04-17T06:19:25.191Z,1020.56
2018-04-17T06:20:25.214Z,1020.58
2018-04-17T06:21:25.253Z,1020.59
2018-04-17T06:22:25.275Z,1020.58
2018-04-17T06:23:25.316Z,1020.60
2018-04-17T06:24:25.338Z,1020.64
2018-04-17T06:25:25.373Z,1020.64
2018-04-17T06:26:25.409Z,1020.66
2018-04-17T06:27:25.433Z,1020.62
2018-04-17T06:28:25.461Z,1020.64
2018-04-17T06:29:25.547Z,1020.64
2018-04-17T06:30:25.796Z,1020.64
2018-04-17T06:31:25.561Z,1020.65
2018-04-17T06:32:25.583Z,1020.64
2018-04-17T06:33:25.628Z,1020.66
2018-04-17T06:34:25.689Z,1020.66
2018-04-17T06:35:25.678Z,1020.64
2018-04-17T06:36:25.713Z,1020.65
2018-04-17T06:37:25.990Z,1020.66
2018-04-17T06:38:25.771Z,1020.65
2018-04-17T06:39:25.807Z,1020.67
2018-04-17T06:40:25.835Z,1020.65
2018-04-17T06:41:25.917Z,1020.68
2018-04-17T06:42:25.897Z,1020.67
2018-04-17T06:43:25.932Z,1020.68
2018-04-17T06:44:26.296Z,1020.69
2018-04-17T06:45:25.991Z,1020.70
2018-04-17T06:46:26.070Z,1020.66
2018-04-17T06:47:26.109Z,1020.69
2018-04-17T06:48:26.092Z,1020.68
2018-04-17T06:49:26.126Z,1020.67
2018-04-17T06:50:26.148Z,1020.66
2018-04-17T06:51:26.527Z,1020.69
2018-04-17T06:52:26.232Z,1020.70
2018-04-17T06:53:26.239Z,1020.70
2018-04-17T06:54:26.289Z,1020.70
2018-04-17T06:55:26.298Z,1020.73
2018-04-17T06:56:26.341Z,1020.70
2018-04-17T06:57:26.485Z,1020.72
2018-04-17T06:58:26.694Z,1020.76
2018-04-17T06:59:26.429Z,1020.80
2018-04-17T07:00:26.455Z,1020.79
2018-04-17T07:01:26.483Z,1020.80
2018-04-17T07:02:26.541Z,1020.78
2018-04-17T07:03:26.759Z,1020.82
2018-04-17T07:04:26.673Z,1020.79
2018-04-17T07:05:26.922Z,1020.84
2018-04-17T07:06:26.654Z,1020.87
2018-04-17T07:07:26.689Z,1020.86
2018-04-17T07:08:26.708Z,1020.89
2018-04-17T07:09:26.751Z,1020.88
2018-04-17T07:10:26.792Z,1020.88
2018-04-17T07:11:26.805Z,1020.90
2018-04-17T07:12:27.129Z,1020.90
2018-04-17T07:13:26.882Z,1020.92
2018-04-17T07:14:26.890Z,1020.93
2018-04-17T07:15:26.952Z,1020.94
2018-04-17T07:16:26.956Z,1020.97
2018-04-17T07:17:26.990Z,1020.95
2018-04-17T07:18:27.065Z,1020.96
2018-04-17T07:19:27.358Z,1021.01
2018-04-17T07:20:27.182Z,1021.03
2018-04-17T07:21:27.112Z,1021.03
2018-04-17T07:22:27.142Z,1021.03
2018-04-17T07:23:27.175Z,1021.06
2018-04-17T07:24:27.202Z,1021.04
2018-04-17T07:25:27.489Z,1021.02
2018-04-17T07:26:27.264Z,1021.00
2018-04-17T07:27:27.295Z,1021.01
2018-04-17T07:28:27.325Z,1021.00
2018-04-17T07:29:27.416Z,1020.99
2018-04-17T07:30:27.466Z,1021.04
2018-04-17T07:31:27.757Z,1021.00
2018-04-17T07:32:27.471Z,1021.06
2018-04-17T07:33:27.517Z,1021.09
2018-04-17T07:34:27.531Z,1021.08
2018-04-17T07:35:27.561Z,1021.11
2018-04-17T07:36:27.671Z,1021.10
2018-04-17T07:37:27.857Z,1021.12
2018-04-17T07:38:27.646Z,1021.09
2018-04-17T07:39:27.677Z,1021.13
2018-04-17T07:40:27.788Z,1021.15
2018-04-17T07:41:27.741Z,1021.19
2018-04-17T07:42:27.783Z,1021.17
2018-04-17T07:43:28.131Z,1021.16
2018-04-17T07:44:27.831Z,1021.18
2018-04-17T07:45:27.862Z,1021.18
2018-04-17T07:46:27.948Z,1021.18
2018-04-17T07:47:27.959Z,1021.18
2018-04-17T07:48:27.964Z,1021.19
2018-04-17T07:49:28.284Z,1021.17
2018-04-17T07:50:28.028Z,1021.21
2018-04-17T07:51:28.049Z,1021.17
2018-04-17T07:52:28.105Z,1021.20
2018-04-17T07:53:28.116Z,1021.23
2018-04-17T07:54:28.145Z,1021.20
2018-04-17T07:55:28.427Z,1021.26
2018-04-17T07:56:28.204Z,1021.25
2018-04-17T07:57:28.241Z,1021.29
2018-04-17T07:58:28.271Z,1021.26
2018-04-17T07:59:28.368Z,1021.30
2018-04-17T08:00:28.345Z,1021.33
2018-04-17T08:01:28.685Z,1021.32
2018-04-17T08:02:28.413Z,1021.25
2018-04-17T08:03:28.436Z,1021.28
2018-04-17T08:04:28.459Z,1021.28
2018-04-17T08:05:28.505Z,1021.28
2018-04-17T08:06:28.518Z,1021.29
2018-04-17T08:07:28.807Z,1021.31
2018-04-17T08:08:28.599Z,1021.33
2018-04-17T08:09:28.623Z,1021.37
2018-04-17T08:10:28.644Z,1021.36
2018-04-17T08:11:28.715Z,1021.38
2018-04-17T08:12:28.720Z,1021.40
2018-04-17T08:13:29.065Z,1021.39
2018-04-17T08:14:28.869Z,1021.38
2018-04-17T08:15:28.822Z,1021.40
2018-04-17T08:16:28.842Z,1021.45
2018-04-17T08:17:28.875Z,1021.48
2018-04-17T08:18:28.898Z,1021.48
2018-04-17T08:19:29.180Z,1021.47
2018-04-17T08:20:28.960Z,1021.53
2018-04-17T08:21:28.991Z,1021.51
2018-04-17T08:22:29.025Z,1021.52
2018-04-17T08:23:29.060Z,1021.51
2018-04-17T08:24:29.100Z,1021.49
2018-04-17T08:25:29.367Z,1021.50
2018-04-17T08:26:29.152Z,1021.52
2018-04-17T08:27:29.192Z,1021.48
2018-04-17T08:28:29.216Z,1021.50
2018-04-17T08:29:29.249Z,1021.50
2018-04-17T08:30:29.277Z,1021.48
2018-04-17T08:31:29.563Z,1021.48
2018-04-17T08:32:29.375Z,1021.49
2018-04-17T08:33:29.381Z,1021.48
2018-04-17T08:34:29.419Z,1021.47
2018-04-17T08:35:29.442Z,1021.50
2018-04-17T08:36:29.529Z,1021.47
2018-04-17T08:37:29.513Z,1021.47
2018-04-17T08:38:29.824Z,1021.46
2018-04-17T08:39:29.568Z,1021.44
2018-04-17T08:40:29.606Z,1021.42
2018-04-17T08:41:29.639Z,1021.45
2018-04-17T08:42:29.658Z,1021.47
2018-04-17T08:43:29.693Z,1021.46
2018-04-17T08:44:29.724Z,1021.51
2018-04-17T08:45:30.006Z,1021.50
2018-04-17T08:46:29.789Z,1021.49
2018-04-17T08:47:29.822Z,1021.47
2018-04-17T08:48:29.856Z,1021.45
2018-04-17T08:49:29.938Z,1021.41
2018-04-17T08:50:29.912Z,1021.39
2018-04-17T08:51:29.952Z,1021.39
2018-04-17T08:52:30.279Z,1021.39
2018-04-17T08:53:30.009Z,1021.35
2018-04-17T08:54:30.072Z,1021.33
2018-04-17T08:55:30.076Z,1021.36
2018-04-17T08:56:30.104Z,1021.32
2018-04-17T08:57:30.140Z,1021.28
2018-04-17T08:58:30.168Z,1021.30
2018-04-17T08:59:30.502Z,1021.28
2018-04-17T09:00:30.239Z,1021.27
2018-04-17T09:01:30.264Z,1021.27
2018-04-17T09:02:30.295Z,1021.24
2018-04-17T09:03:30.332Z,1021.22
2018-04-17T09:04:30.374Z,1021.26
2018-04-17T09:05:30.399Z,1021.24
2018-04-17T09:06:30.723Z,1021.25
2018-04-17T09:07:30.456Z,1021.27
2018-04-17T09:08:30.490Z,1021.27
2018-04-17T09:09:30.523Z,1021.28
2018-04-17T09:10:30.574Z,1021.27
2018-04-17T09:11:30.583Z,1021.25
2018-04-17T09:12:30.621Z,1021.26
2018-04-17T09:13:30.899Z,1021.28
2018-04-17T09:14:30.682Z,1021.29
2018-04-17T09:15:30.713Z,1021.29
2018-04-17T09:16:30.742Z,1021.32
2018-04-17T09:17:30.779Z,1021.32
2018-04-17T09:18:30.815Z,1021.28
2018-04-17T09:19:30.841Z,1021.29
2018-04-17T09:20:31.123Z,1021.28
2018-04-17T09:21:30.907Z,1021.31
2018-04-17T09:22:30.936Z,1021.28
2018-04-17T09:23:30.980Z,1021.27
2018-04-17T09:24:31.209Z,1021.28
2018-04-17T09:25:31.082Z,1021.27
2018-04-17T09:26:31.080Z,1021.26
2018-04-17T09:27:31.409Z,1021.26
2018-04-17T09:28:31.136Z,1021.27
2018-04-17T09:29:31.169Z,1021.26
2018-04-17T09:30:31.191Z,1021.23
2018-04-17T09:31:31.237Z,1021.27
2018-04-17T09:32:31.261Z,1021.28
2018-04-17T09:33:31.308Z,1021.29
2018-04-17T09:34:31.377Z,1021.29
2018-04-17T09:35:31.361Z,1021.27
2018-04-17T09:36:31.436Z,1021.24
2018-04-17T09:37:31.437Z,1021.29
2018-04-17T09:38:31.461Z,1021.29
2018-04-17T09:39:31.491Z,1021.25
2018-04-17T09:40:31.762Z,1021.29
2018-04-17T09:41:31.596Z,1021.30
2018-04-17T09:42:31.597Z,1021.29
2018-04-17T09:43:31.612Z,1021.28
2018-04-17T09:44:31.648Z,1021.29
2018-04-17T09:45:31.687Z,1021.28
2018-04-17T09:46:31.723Z,1021.24
2018-04-17T09:47:32.041Z,1021.26
2018-04-17T09:48:31.773Z,1021.24
2018-04-17T09:49:31.809Z,1021.19
2018-04-17T09:50:31.862Z,1021.19
2018-04-17T09:51:31.886Z,1021.18
2018-04-17T09:52:31.932Z,1021.17
2018-04-17T09:53:31.968Z,1021.23
2018-04-17T09:54:32.312Z,1021.24
2018-04-17T09:55:32.005Z,1021.21
2018-04-17T09:56:32.084Z,1021.21
2018-04-17T09:57:32.138Z,1021.23
2018-04-17T09:58:32.096Z,1021.25
2018-04-17T09:59:32.162Z,1021.22
2018-04-17T10:00:32.163Z,1021.22
2018-04-17T10:01:32.207Z,1021.25
2018-04-17T10:02:32.227Z,1021.24
2018-04-17T10:03:32.277Z,1021.26
2018-04-17T10:05:32.433Z,1021.26
2018-04-17T10:06:33.064Z,1021.28
2018-04-17T10:07:32.568Z,1021.21
2018-04-17T10:08:32.432Z,1021.25
2018-04-17T10:09:32.493Z,1021.22
2018-04-17T10:10:32.516Z,1021.22
2018-04-17T10:11:32.585Z,1021.19
2018-04-17T10:12:32.867Z,1021.16
2018-04-17T10:13:32.822Z,1021.16
2018-04-17T10:14:32.721Z,1021.14
2018-04-17T10:15:32.697Z,1021.14
2018-04-17T10:16:32.716Z,1021.09
2018-04-17T10:17:32.767Z,1021.10
2018-04-17T10:18:32.778Z,1021.13
2018-04-17T10:19:32.794Z,1021.10
2018-04-17T10:20:32.926Z,1021.11
2018-04-17T10:21:33.082Z,1021.10
2018-04-17T10:22:32.928Z,1021.11
2018-04-17T10:23:32.921Z,1021.15
2018-04-17T10:24:33.268Z,1021.14
2018-04-17T10:25:33.049Z,1021.13
2018-04-17T10:26:33.040Z,1021.12
2018-04-17T10:27:33.084Z,1021.08
2018-04-17T10:28:33.071Z,1021.11
2018-04-17T10:29:33.129Z,1021.07
2018-04-17T10:30:33.505Z,1021.06
2018-04-17T10:31:33.198Z,1021.09
2018-04-17T10:32:33.298Z,1021.06
2018-04-17T10:33:33.357Z,1021.04
2018-04-17T10:34:33.305Z,1021.00
2018-04-17T10:35:33.389Z,1021.05
2018-04-17T10:36:33.708Z,1021.07
2018-04-17T10:37:33.470Z,1021.02
2018-04-17T10:38:33.418Z,1021.02
2018-04-17T10:39:33.491Z,1021.00
2018-04-17T10:40:33.534Z,1020.98
2018-04-17T10:41:33.674Z,1020.99
2018-04-17T10:42:33.898Z,1020.98
2018-04-17T10:43:33.626Z,1020.99
2018-04-17T10:44:33.621Z,1020.95
2018-04-17T10:45:33.635Z,1020.91
2018-04-17T10:46:33.759Z,1020.96
2018-04-17T10:47:33.702Z,1020.94
2018-04-17T10:48:34.059Z,1020.91
2018-04-17T10:49:33.824Z,1020.97
2018-04-17T10:50:33.835Z,1020.95
2018-04-17T10:51:33.894Z,1020.97
2018-04-17T10:52:33.877Z,1020.95
2018-04-17T10:53:33.926Z,1020.94
2018-04-17T10:54:34.359Z,1020.91
2018-04-17T10:55:34.003Z,1020.91
2018-04-17T10:56:34.074Z,1020.93
2018-04-17T10:57:34.037Z,1020.89
2018-04-17T10:58:34.096Z,1020.88
2018-04-17T10:59:34.166Z,1020.86
2018-04-17T11:00:34.452Z,1020.81
2018-04-17T11:01:34.200Z,1020.84
2018-04-17T11:02:34.220Z,1020.79
2018-04-17T11:03:34.274Z,1020.85
2018-04-17T11:04:34.308Z,1020.80
2018-04-17T11:05:34.308Z,1020.82
2018-04-17T11:06:34.706Z,1020.83
2018-04-17T11:07:34.490Z,1020.87
2018-04-17T11:08:34.408Z,1020.85
2018-04-17T11:09:34.434Z,1020.83
2018-04-17T11:10:34.463Z,1020.83
2018-04-17T11:11:34.671Z,1020.89
2018-04-17T11:12:34.835Z,1020.87
2018-04-17T11:13:34.555Z,1020.89
2018-04-17T11:14:34.603Z,1020.89
2018-04-17T11:16:34.655Z,1020.82
2018-04-17T11:17:34.722Z,1020.82
2018-04-17T11:18:34.727Z,1020.81
2018-04-17T11:19:35.009Z,1020.79
2018-04-17T11:20:34.791Z,1020.78
2018-04-17T11:21:34.818Z,1020.79
2018-04-17T11:22:34.857Z,1020.80
2018-04-17T11:23:35.088Z,1020.79
2018-04-17T11:24:34.917Z,1020.77
2018-04-17T11:25:34.953Z,1020.85
2018-04-17T11:26:35.290Z,1020.78
2018-04-17T11:27:35.046Z,1020.85
2018-04-17T11:28:35.052Z,1020.84
2018-04-17T11:29:35.086Z,1020.82
2018-04-17T11:30:35.114Z,1020.86
2018-04-17T11:31:35.148Z,1020.86
2018-04-17T11:32:35.181Z,1020.84
2018-04-17T11:33:35.474Z,1020.85
2018-04-17T11:34:35.335Z,1020.87
2018-04-17T11:35:35.295Z,1020.87
2018-04-17T11:36:35.315Z,1020.85
2018-04-17T11:37:35.364Z,1020.92
2018-04-17T11:38:35.385Z,1020.90
2018-04-17T11:39:35.421Z,1020.93
2018-04-17T11:40:35.457Z,1020.91
2018-04-17T11:41:35.481Z,1020.90
2018-04-17T11:42:35.537Z,1020.95
2018-04-17T11:43:35.570Z,1020.95
2018-04-17T11:44:35.590Z,1020.91
2018-04-17T11:45:35.619Z,1020.93
2018-04-17T11:46:35.902Z,1020.98
2018-04-17T11:47:35.684Z,1020.91
2018-04-17T11:48:35.713Z,1020.90
2018-04-17T11:49:35.751Z,1020.93
2018-04-17T11:50:35.811Z,1020.90
2018-04-17T11:51:35.815Z,1020.84
2018-04-17T11:52:35.853Z,1020.78
2018-04-17T11:53:36.132Z,1020.74
2018-04-17T11:54:35.964Z,1020.78
2018-04-17T11:55:35.967Z,1020.74
2018-04-17T11:56:35.988Z,1020.75
2018-04-17T11:57:36.025Z,1020.73
2018-04-17T11:58:36.070Z,1020.73
2018-04-17T11:59:36.082Z,1020.75
2018-04-17T12:00:36.377Z,1020.77
2018-04-17T12:01:36.147Z,1020.77
2018-04-17T12:02:36.182Z,1020.74
2018-04-17T12:03:36.238Z,1020.75
2018-04-17T12:04:36.254Z,1020.77
2018-04-17T12:05:36.338Z,1020.74
2018-04-17T12:06:36.343Z,1020.74
2018-04-17T12:07:36.651Z,1020.76